createdAt,value
2018-12-01T05:01:39.078Z,5.40
2018-12-01T05:04:01.791Z,5.30
2018-12-01T05:06:24.480Z,5.40
2018-12-01T05:08:47.158Z,5.40
2018-12-01T05:11:09.805Z,5.40
2018-12-01T05:13:32.469Z,5.50
2018-12-01T06:02:11.182Z,5.30
2018-12-01T06:04:33.865Z,5.20
2018-12-01T06:06:56.531Z,5.20
2018-12-01T06:09:19.190Z,5.20
2018-12-01T06:11:41.835Z,5.30
2018-12-01T06:14:04.483Z,5.20
2018-12-01T07:02:42.286Z,4.50
2018-12-01T07:05:06.643Z,4.60
2018-12-01T07:07:29.319Z,4.60
2018-12-01T07:09:58.646Z,4.70
2018-12-01T07:12:21.297Z,4.70
2018-12-01T07:14:43.954Z,4.80
2018-12-01T08:00:20.529Z,6.60
2018-12-01T08:02:44.624Z,6.60
2018-12-01T08:05:08.573Z,6.50
2018-12-01T08:07:31.257Z,6.30
2018-12-01T08:09:53.930Z,6.20
2018-12-01T08:12:16.572Z,6.20
2018-12-01T08:14:39.226Z,6.10
2018-12-01T09:00:19.686Z,7.40
2018-12-01T09:02:42.593Z,7.60
2018-12-01T09:05:06.441Z,7.90
2018-12-01T09:07:29.121Z,8.00
2018-12-01T10:01:56.025Z,17.30
2018-12-01T10:04:18.712Z,17.80
2018-12-01T10:06:41.385Z,18.00
2018-12-01T10:09:07.369Z,17.50
2018-12-01T10:11:30.150Z,17.10
2018-12-01T10:13:52.865Z,16.50
2018-12-01T11:02:35.517Z,17.00
2018-12-01T11:04:58.241Z,16.60
2018-12-01T11:07:20.938Z,15.80
2018-12-01T11:09:43.637Z,15.20
2018-12-01T11:12:06.419Z,14.80
2018-12-01T11:14:29.213Z,14.40
2018-12-01T12:00:20.221Z,15.80
2018-12-01T12:02:43.191Z,15.30
2018-12-01T12:05:06.762Z,14.80
2018-12-01T12:07:40.853Z,14.80
2018-12-01T12:10:03.987Z,15.10
2018-12-01T12:12:26.777Z,15.30
2018-12-01T12:14:52.057Z,15.40
2018-12-01T13:00:24.717Z,19.30
2018-12-01T13:02:50.678Z,19.30
2018-12-01T13:05:18.433Z,19.00
2018-12-01T13:07:41.158Z,19.10
2018-12-01T13:10:07.662Z,18.20
2018-12-01T13:12:30.472Z,18.00
2018-12-01T13:14:53.277Z,17.80
2018-12-01T14:00:28.231Z,13.60
2018-12-01T14:02:51.165Z,13.10
2018-12-01T14:05:13.947Z,12.80
2018-12-01T14:07:37.426Z,12.50
2018-12-01T14:10:00.955Z,12.10
2018-12-01T14:12:23.768Z,11.90
2018-12-01T14:14:48.661Z,11.60
2018-12-01T15:00:22.760Z,9.70
2018-12-01T15:02:45.734Z,9.40
2018-12-01T15:05:08.475Z,9.30
2018-12-01T15:07:31.185Z,9.30
2018-12-01T15:09:53.863Z,9.20
2018-12-01T15:12:16.594Z,9.10
2018-12-01T15:14:39.329Z,8.90
2018-12-01T16:00:19.889Z,7.50
2018-12-01T16:02:42.627Z,7.50
2018-12-01T16:05:05.704Z,7.50
2018-12-01T16:07:28.377Z,7.40
2018-12-01T16:09:51.111Z,7.50
2018-12-01T16:12:13.857Z,7.50
2018-12-01T16:14:36.605Z,7.50
2018-12-01T16:16:59.313Z,7.50
2018-12-01T16:19:22.070Z,7.40
2018-12-01T16:21:44.754Z,7.40
2018-12-01T16:24:07.442Z,7.30
2018-12-01T16:26:30.062Z,7.30
2018-12-01T16:28:52.705Z,7.20
2018-12-01T16:31:15.354Z,7.20
2018-12-01T17:01:22.385Z,6.70
2018-12-01T17:03:45.317Z,6.60
2018-12-01T17:06:11.832Z,6.70
2018-12-01T17:08:34.615Z,6.70
2018-12-01T17:10:57.309Z,6.70
2018-12-01T17:13:20.009Z,6.70
2018-12-01T18:02:03.249Z,6.80
2018-12-01T18:04:25.902Z,6.80
2018-12-01T18:06:48.599Z,6.80
2018-12-01T18:09:11.445Z,6.70
2018-12-01T18:11:34.174Z,6.70
2018-12-01T18:13:56.922Z,6.60
2018-12-01T19:02:34.710Z,5.80
2018-12-01T19:04:57.457Z,5.70
2018-12-01T19:07:20.179Z,5.60
2018-12-01T19:09:42.913Z,5.50
2018-12-01T19:12:05.625Z,5.40
2018-12-01T19:14:28.298Z,5.30
2018-12-01T20:00:16.250Z,6.00
2018-12-01T20:02:38.915Z,6.10
2018-12-01T20:05:01.595Z,6.10
2018-12-01T20:07:24.297Z,6.10
2018-12-01T20:09:46.989Z,6.10
2018-12-01T20:12:09.673Z,6.20
2018-12-01T20:14:32.362Z,6.20
2018-12-01T21:00:19.622Z,7.70
2018-12-01T21:02:43.047Z,7.80
2018-12-01T21:05:08.649Z,7.80
2018-12-01T21:07:31.320Z,7.80
2018-12-01T21:09:54.017Z,7.80
2018-12-01T21:12:16.864Z,7.80
2018-12-01T21:14:39.538Z,7.80
